createdAt,value
2018-09-21T00:04:17.631Z,18.40
2018-09-21T00:09:20.767Z,18.30
2018-09-21T00:14:23.887Z,18.30
2018-09-21T00:19:27.012Z,18.30
2018-09-21T00:24:30.153Z,18.20
2018-09-21T00:29:33.259Z,18.20
2018-09-21T00:34:36.367Z,18.10
2018-09-21T00:39:46.228Z,18.10
2018-09-21T00:44:49.335Z,18.00
2018-09-21T00:49:52.525Z,18.00
2018-09-21T00:54:55.631Z,17.90
2018-09-21T00:59:58.795Z,17.90
2018-09-21T01:05:01.983Z,17.80
2018-09-21T01:10:05.187Z,17.80
2018-09-21T01:15:08.300Z,17.70
2018-09-21T01:20:11.403Z,17.60
2018-09-21T01:25:14.540Z,17.50
2018-09-21T01:30:17.703Z,17.50
2018-09-21T01:35:20.815Z,17.40
2018-09-21T01:40:23.933Z,17.40
2018-09-21T01:45:27.103Z,17.30
2018-09-21T01:50:30.234Z,17.30
2018-09-21T01:55:33.316Z,17.30
2018-09-21T02:00:36.422Z,17.20
2018-09-21T02:05:39.534Z,17.20
2018-09-21T02:10:42.648Z,17.10
2018-09-21T02:15:45.781Z,17.10
2018-09-21T02:20:48.885Z,17.10
2018-09-21T02:25:52.011Z,17.00
2018-09-21T02:30:55.118Z,17.00
2018-09-21T02:35:58.243Z,17.00
2018-09-21T02:41:01.372Z,17.00
2018-09-21T02:46:04.489Z,17.00
2018-09-21T02:51:07.614Z,16.90
2018-09-21T02:56:10.732Z,16.90
2018-09-21T03:01:13.830Z,16.80
2018-09-21T03:06:16.946Z,16.80
2018-09-21T03:11:20.060Z,16.70
2018-09-21T03:16:23.169Z,16.70
2018-09-21T03:21:26.277Z,16.60
2018-09-21T03:26:29.389Z,16.60
2018-09-21T03:31:32.488Z,16.60
2018-09-21T03:36:35.573Z,16.60
2018-09-21T03:41:38.938Z,16.60
2018-09-21T03:46:42.133Z,16.60
2018-09-21T03:51:45.244Z,16.60
2018-09-21T03:56:48.361Z,16.60
2018-09-21T04:01:51.462Z,16.50
2018-09-21T04:06:54.568Z,16.50
2018-09-21T04:11:58.789Z,16.50
2018-09-21T04:17:01.895Z,16.50
2018-09-21T04:22:05.059Z,16.60
2018-09-21T04:27:08.178Z,16.50
2018-09-21T04:32:11.281Z,16.60
2018-09-21T04:37:14.413Z,16.60
2018-09-21T04:42:17.785Z,16.60
2018-09-21T04:47:20.928Z,16.70
2018-09-21T04:52:24.056Z,16.70
2018-09-21T04:57:27.189Z,16.70
2018-09-21T05:02:30.330Z,16.80
2018-09-21T05:07:33.444Z,16.80
2018-09-21T05:12:36.609Z,16.80
2018-09-21T05:17:39.719Z,16.80
2018-09-21T05:22:42.813Z,16.90
2018-09-21T05:27:45.930Z,16.90
2018-09-21T05:32:49.046Z,17.00
2018-09-21T05:37:52.182Z,17.00
2018-09-21T05:42:55.281Z,17.10
2018-09-21T05:47:58.455Z,17.20
2018-09-21T05:53:01.568Z,17.20
2018-09-21T05:58:04.716Z,17.30
2018-09-21T06:03:07.821Z,17.50
2018-09-21T06:08:10.927Z,17.60
2018-09-21T06:13:14.046Z,17.70
2018-09-21T06:18:17.415Z,17.90
2018-09-21T06:23:20.521Z,18.00
2018-09-21T06:28:23.665Z,18.20
2018-09-21T06:33:26.769Z,18.30
2018-09-21T06:38:29.894Z,18.50
2018-09-21T06:43:33.033Z,18.70
2018-09-21T06:48:36.153Z,18.80
2018-09-21T06:53:39.245Z,19.00
2018-09-21T06:58:42.348Z,19.10
2018-09-21T07:03:45.438Z,19.20
2018-09-21T07:08:48.681Z,19.40
2018-09-21T07:13:52.055Z,19.50
2018-09-21T07:18:55.193Z,19.60
2018-09-21T07:23:58.314Z,19.80
2018-09-21T07:29:01.482Z,19.90
2018-09-21T07:34:04.594Z,20.10
2018-09-21T07:39:08.165Z,20.30
2018-09-21T07:44:11.273Z,20.50
2018-09-21T07:49:14.357Z,20.70
2018-09-21T07:54:17.538Z,20.80
2018-09-21T07:59:20.652Z,21.10
2018-09-21T08:04:23.739Z,21.40
2018-09-21T08:09:26.816Z,21.70
2018-09-21T08:14:29.973Z,22.10
2018-09-21T08:19:33.155Z,22.40
2018-09-21T08:24:36.225Z,22.60
2018-09-21T08:29:39.324Z,22.90
2018-09-21T08:34:42.639Z,23.10
2018-09-21T08:39:46.188Z,23.40
2018-09-21T08:44:49.313Z,23.60
2018-09-21T08:49:52.428Z,23.90
2018-09-21T08:54:55.554Z,24.20
2018-09-21T08:59:58.684Z,24.40
2018-09-21T09:05:01.813Z,24.70
2018-09-21T09:10:04.943Z,25.00
2018-09-21T09:15:08.088Z,25.30
2018-09-21T09:20:11.233Z,25.70
2018-09-21T09:25:14.376Z,26.00
2018-09-21T09:30:17.485Z,26.30
2018-09-21T09:35:20.633Z,26.60
2018-09-21T09:40:23.737Z,26.90
2018-09-21T09:45:26.820Z,27.20
2018-09-21T09:50:29.959Z,27.50
2018-09-21T09:55:33.062Z,27.70
2018-09-21T10:00:40.402Z,27.90
2018-09-21T10:05:44.379Z,28.00
2018-09-21T10:10:47.488Z,28.10
2018-09-21T10:15:50.593Z,28.30
2018-09-21T10:20:53.701Z,28.40
2018-09-21T10:25:58.409Z,28.60
2018-09-21T10:31:01.508Z,28.60
2018-09-21T10:36:04.629Z,28.60
2018-09-21T10:41:07.726Z,28.60
2018-09-21T10:46:10.864Z,28.60
2018-09-21T10:51:13.960Z,28.80
2018-09-21T10:56:17.162Z,29.00
2018-09-21T11:01:20.372Z,29.30
2018-09-21T11:06:23.472Z,29.30
2018-09-21T11:11:26.611Z,29.50
2018-09-21T11:16:29.820Z,29.60
2018-09-21T11:21:32.956Z,29.60
2018-09-21T11:26:36.092Z,29.50
2018-09-21T11:31:39.237Z,29.50
2018-09-21T11:36:42.344Z,29.50
2018-09-21T11:41:45.465Z,29.50
2018-09-21T11:46:48.638Z,29.50
2018-09-21T11:51:51.708Z,29.30
2018-09-21T11:56:54.835Z,29.30
2018-09-21T12:01:57.989Z,29.40
2018-09-21T12:07:01.223Z,29.50
2018-09-21T12:12:04.312Z,29.50
2018-09-21T12:17:07.460Z,29.40
2018-09-21T12:22:10.558Z,29.40
2018-09-21T12:27:13.637Z,29.40
2018-09-21T12:32:16.793Z,29.30
2018-09-21T12:37:19.998Z,29.20
2018-09-21T12:42:23.169Z,29.10
2018-09-21T12:52:54.045Z,29.00
2018-09-21T12:57:57.218Z,29.00
2018-09-21T13:03:00.300Z,29.10
2018-09-21T13:08:03.435Z,29.00
2018-09-21T13:13:06.699Z,29.00
2018-09-21T13:18:09.822Z,28.90
2018-09-21T13:23:12.928Z,28.80
2018-09-21T13:28:16.016Z,28.70
2018-09-21T13:33:19.105Z,28.60
2018-09-21T13:38:22.181Z,28.40
2018-09-21T13:43:25.254Z,28.30
2018-09-21T13:48:28.368Z,28.10
2018-09-21T13:53:31.460Z,28.10
2018-09-21T13:58:34.572Z,27.90
2018-09-21T14:03:37.685Z,27.80
2018-09-21T14:08:40.760Z,27.70
2018-09-21T14:13:43.870Z,27.60
2018-09-21T14:18:46.980Z,27.60
2018-09-21T14:23:50.121Z,27.50
2018-09-21T14:28:53.267Z,27.50
2018-09-21T14:33:56.382Z,27.10
2018-09-21T14:38:59.543Z,25.70
2018-09-21T14:44:02.663Z,25.10
2018-09-21T14:49:05.766Z,24.30
2018-09-21T14:54:09.039Z,23.70
2018-09-21T14:59:12.268Z,23.10
2018-09-21T15:04:15.453Z,22.70
2018-09-21T15:09:18.760Z,22.30
2018-09-21T15:14:21.880Z,21.10
2018-09-21T15:19:25.204Z,20.10
2018-09-21T15:24:28.346Z,19.30
2018-09-21T15:29:31.555Z,18.70
2018-09-21T15:34:34.721Z,18.40
2018-09-21T15:39:37.821Z,18.20
2018-09-21T15:44:40.900Z,17.90
2018-09-21T15:49:43.983Z,17.50
2018-09-21T15:54:47.085Z,17.40
2018-09-21T15:59:50.268Z,17.40
2018-09-21T16:04:53.380Z,17.50
2018-09-21T16:09:56.702Z,17.50
2018-09-21T16:14:59.810Z,17.50
2018-09-21T16:20:03.848Z,17.50
2018-09-21T16:25:06.967Z,17.50
2018-09-21T16:30:10.348Z,17.50
2018-09-21T16:35:13.443Z,17.60
2018-09-21T16:40:16.533Z,17.70
2018-09-21T16:45:19.647Z,17.80
2018-09-21T16:50:22.753Z,17.60
2018-09-21T16:55:25.881Z,17.60
2018-09-21T17:00:28.979Z,17.50
2018-09-21T17:05:32.086Z,17.50
2018-09-21T17:10:35.171Z,17.40
2018-09-21T17:15:38.279Z,17.30
2018-09-21T17:20:41.385Z,17.20
2018-09-21T17:25:44.570Z,17.10
2018-09-21T17:30:48.400Z,16.90
2018-09-21T17:35:51.506Z,16.80
2018-09-21T17:40:54.601Z,16.80
2018-09-21T17:45:57.760Z,16.70
2018-09-21T17:51:00.893Z,16.60
2018-09-21T17:56:04.722Z,16.40
2018-09-21T18:01:07.895Z,16.40
2018-09-21T18:11:15.236Z,16.20
2018-09-21T18:16:18.441Z,16.00
2018-09-21T18:21:21.559Z,15.90
2018-09-21T18:26:24.662Z,15.80
2018-09-21T18:31:28.492Z,15.80
2018-09-21T18:36:32.365Z,15.70
2018-09-21T18:41:36.343Z,15.60
2018-09-21T18:46:40.168Z,15.50
2018-09-21T18:51:43.471Z,15.40
2018-09-21T18:56:46.771Z,15.40
2018-09-21T19:01:50.592Z,15.30
2018-09-21T19:06:53.792Z,15.30
2018-09-21T19:11:57.439Z,15.20
2018-09-21T19:17:03.908Z,15.20
2018-09-21T19:22:07.172Z,15.10
2018-09-21T19:27:10.878Z,15.00
2018-09-21T19:32:14.115Z,15.00
2018-09-21T19:37:17.369Z,15.00
2018-09-21T19:42:21.203Z,15.00
2018-09-21T19:47:25.113Z,14.90
2018-09-21T19:52:28.450Z,14.90
2018-09-21T19:57:32.267Z,14.80
2018-09-21T20:02:35.903Z,14.80
2018-09-21T20:07:39.418Z,14.80
2018-09-21T20:12:43.374Z,14.70
2018-09-21T20:17:46.723Z,14.70
2018-09-21T20:22:50.062Z,14.60
2018-09-21T20:27:53.702Z,14.60
2018-09-21T20:33:02.394Z,14.50
2018-09-21T20:38:05.656Z,14.50
2018-09-21T20:43:08.931Z,14.40
2018-09-21T20:48:12.121Z,14.30
2018-09-21T20:53:15.290Z,14.30
2018-09-21T20:58:18.561Z,14.20
2018-09-21T21:03:21.847Z,14.10
2018-09-21T21:08:25.105Z,14.10
2018-09-21T21:13:28.299Z,14.10
2018-09-21T21:18:31.519Z,14.00
2018-09-21T21:23:34.742Z,13.90
2018-09-21T21:28:38.114Z,13.90
2018-09-21T21:33:41.479Z,13.80
2018-09-21T21:38:44.773Z,13.80
2018-09-21T21:43:48.374Z,13.70
2018-09-21T21:48:51.647Z,13.60
2018-09-21T21:53:54.977Z,13.60
2018-09-21T21:58:58.279Z,13.50
2018-09-21T22:04:01.749Z,13.50
2018-09-21T22:09:07.408Z,13.50
2018-09-21T22:14:11.217Z,13.40
2018-09-21T22:19:14.692Z,13.30
2018-09-21T22:24:18.027Z,13.30
2018-09-21T22:29:21.427Z,13.30
2018-09-21T22:34:24.797Z,13.20
2018-09-21T22:39:28.498Z,13.20
2018-09-21T22:44:31.972Z,13.10
2018-09-21T22:49:35.514Z,13.10
2018-09-21T22:54:39.214Z,13.00
2018-09-21T22:59:42.466Z,13.00
2018-09-21T23:04:45.835Z,12.90
2018-09-21T23:09:49.441Z,12.90
2018-09-21T23:14:53.178Z,12.80
2018-09-21T23:19:56.529Z,12.80
2018-09-21T23:25:02.391Z,12.70
2018-09-21T23:30:05.922Z,12.70
